createdAt,value
2022-08-26T00:44:06.474Z,11.50
2022-08-26T00:46:38.593Z,11.95
2022-08-26T00:49:19.243Z,13.13
2022-08-26T00:51:51.298Z,14.27
2022-08-26T00:54:23.347Z,13.85
2022-08-26T00:56:57.756Z,12.73
2022-08-26T00:59:33.028Z,13.75
2022-08-26T01:02:03.704Z,12.57
2022-08-26T01:04:34.501Z,12.60
2022-08-26T01:07:04.517Z,13.95
2022-08-26T01:09:35.510Z,13.45
2022-08-26T01:12:07.859Z,14.55
2022-08-26T01:14:41.101Z,12.70
2022-08-26T01:17:17.707Z,12.98
2022-08-26T01:19:49.638Z,13.68
2022-08-26T01:22:21.798Z,11.68
2022-08-26T01:24:57.817Z,12.93
2022-08-26T01:27:32.402Z,14.30
2022-08-26T01:30:03.199Z,13.73
2022-08-26T01:32:33.811Z,13.23
2022-08-26T01:35:02.951Z,13.18
2022-08-26T01:37:35.689Z,13.93
2022-08-26T01:40:08.538Z,14.15
2022-08-26T01:42:37.734Z,13.38
2022-08-26T01:45:09.514Z,14.57
2022-08-26T01:47:39.549Z,13.80
2022-08-26T01:50:13.109Z,13.15
2022-08-26T01:52:54.193Z,13.80
2022-08-26T01:55:32.479Z,15.23
2022-08-26T01:58:05.849Z,14.40
2022-08-26T02:00:35.352Z,14.93
2022-08-26T02:03:18.361Z,15.35
2022-08-26T02:05:51.401Z,14.25
2022-08-26T02:08:24.606Z,15.90
2022-08-26T02:10:56.351Z,15.05
2022-08-26T02:13:26.692Z,15.88
2022-08-26T02:15:56.749Z,15.20
2022-08-26T02:18:26.972Z,15.90
2022-08-26T02:20:57.278Z,15.85
2022-08-26T02:23:26.424Z,15.20
2022-08-26T02:25:57.996Z,16.25
2022-08-26T02:28:30.644Z,16.00
2022-08-26T02:30:59.755Z,15.88
2022-08-26T02:33:31.954Z,14.68
2022-08-26T02:36:01.117Z,14.65
2022-08-26T02:38:30.223Z,15.07
2022-08-26T02:41:00.957Z,15.32
2022-08-26T02:43:32.886Z,16.38
2022-08-26T02:48:32.182Z,14.38
2022-08-26T02:51:01.709Z,15.25
2022-08-26T02:53:31.872Z,16.55
2022-08-26T02:56:02.568Z,16.00
2022-08-26T02:58:32.474Z,15.23
2022-08-26T03:01:04.930Z,14.70
2022-08-26T03:03:34.836Z,14.35
2022-08-26T03:06:03.878Z,13.90
2022-08-26T03:08:32.998Z,14.80
2022-08-26T03:11:03.581Z,13.73
2022-08-26T03:13:32.544Z,14.50
2022-08-26T03:16:02.741Z,13.63
2022-08-26T03:18:31.852Z,14.15
2022-08-26T03:21:01.243Z,15.98
2022-08-26T03:23:30.187Z,15.52
2022-08-26T03:26:01.726Z,16.15
2022-08-26T03:28:32.404Z,16.00
2022-08-26T03:31:00.734Z,14.55
2022-08-26T03:33:29.990Z,14.25
2022-08-26T03:35:58.983Z,13.93
2022-08-26T03:38:27.950Z,15.70
2022-08-26T03:40:57.360Z,14.98
2022-08-26T03:43:27.147Z,16.10
2022-08-26T03:45:57.483Z,16.95
2022-08-26T03:48:26.558Z,15.27
2022-08-26T03:50:55.523Z,16.50
2022-08-26T03:53:24.819Z,15.90
2022-08-26T03:55:53.948Z,17.23
2022-08-26T03:58:24.248Z,15.70
2022-08-26T04:00:55.703Z,15.13
2022-08-26T04:03:43.762Z,15.65
2022-08-26T04:06:12.907Z,15.48
2022-08-26T04:08:42.082Z,15.52
2022-08-26T04:11:11.485Z,15.85
2022-08-26T04:13:41.744Z,13.93
2022-08-26T04:16:11.341Z,16.85
2022-08-26T04:18:46.513Z,16.13
2022-08-26T04:21:16.412Z,14.60
2022-08-26T04:23:47.210Z,15.30
2022-08-26T04:26:17.533Z,14.40
2022-08-26T04:28:46.665Z,15.63
2022-08-26T04:31:18.335Z,14.93
2022-08-26T04:33:50.010Z,15.10
2022-08-26T04:36:20.271Z,15.82
2022-08-26T04:38:50.625Z,14.52
2022-08-26T04:41:21.651Z,14.77
2022-08-26T04:43:50.683Z,13.05
2022-08-26T04:46:22.830Z,13.55
2022-08-26T04:51:28.122Z,13.18
2022-08-26T04:53:57.633Z,12.77
2022-08-26T04:56:27.516Z,13.35
2022-08-26T04:58:57.641Z,12.07
2022-08-26T05:01:26.975Z,12.63
2022-08-26T05:03:56.300Z,11.05
2022-08-26T05:06:27.194Z,11.02
2022-08-26T05:08:59.023Z,11.73
2022-08-26T05:11:28.097Z,11.57
2022-08-26T05:14:01.633Z,12.35
2022-08-26T05:16:31.701Z,12.30
2022-08-26T05:19:01.549Z,12.35
2022-08-26T05:21:31.921Z,11.95
2022-08-26T05:24:02.137Z,12.05
2022-08-26T05:26:32.170Z,11.50
2022-08-26T05:29:01.492Z,11.77
2022-08-26T05:31:31.276Z,10.63
2022-08-26T05:34:03.613Z,11.88
2022-08-26T05:36:35.294Z,12.45
2022-08-26T05:39:05.421Z,12.63
2022-08-26T05:41:36.659Z,11.60
2022-08-26T05:44:09.018Z,11.77
2022-08-26T05:46:38.597Z,12.23
2022-08-26T05:49:12.855Z,10.70
2022-08-26T05:51:47.633Z,10.80
2022-08-26T05:54:22.132Z,10.88
2022-08-26T05:56:51.959Z,11.68
2022-08-26T05:59:24.186Z,12.13
2022-08-26T06:01:54.565Z,12.10
2022-08-26T06:04:29.246Z,11.45
2022-08-26T06:07:00.238Z,11.88
2022-08-26T06:09:29.628Z,10.50
2022-08-26T06:12:02.880Z,12.40
2022-08-26T06:14:31.886Z,10.77
2022-08-26T06:17:01.067Z,12.00
2022-08-26T06:19:33.132Z,10.93
2022-08-26T06:22:25.240Z,11.25
2022-08-26T06:25:12.470Z,11.80
2022-08-26T06:27:42.730Z,10.88
2022-08-26T06:30:13.333Z,9.68
2022-08-26T06:32:44.368Z,9.10
2022-08-26T06:35:15.467Z,9.70
2022-08-26T06:37:45.893Z,9.15
2022-08-26T06:40:15.325Z,8.27
2022-08-26T06:42:45.218Z,8.60
2022-08-26T06:45:15.129Z,9.23
2022-08-26T06:47:44.244Z,7.50
2022-08-26T06:50:13.396Z,7.25
2022-08-26T06:52:43.218Z,6.60
2022-08-26T06:55:14.159Z,7.13
2022-08-26T06:57:43.651Z,7.00
2022-08-26T07:00:15.284Z,7.03
2022-08-26T07:02:46.847Z,7.25
2022-08-26T07:05:16.856Z,6.65
2022-08-26T07:07:46.354Z,7.38
2022-08-26T07:10:17.368Z,7.18
2022-08-26T07:12:49.484Z,7.45
2022-08-26T07:17:47.820Z,7.13
2022-08-26T07:20:18.142Z,7.03
2022-08-26T07:22:48.475Z,6.90
2022-08-26T07:25:20.885Z,7.75
2022-08-26T07:27:54.058Z,7.25
2022-08-26T07:30:24.060Z,6.68
2022-08-26T07:32:53.322Z,6.88
2022-08-26T07:37:57.092Z,7.13
2022-08-26T07:40:27.826Z,6.68
2022-08-26T07:42:56.792Z,6.22
2022-08-26T07:45:26.211Z,6.40
2022-08-26T07:47:55.345Z,6.78
2022-08-26T07:50:49.520Z,6.10
2022-08-26T07:53:14.602Z,5.80
2022-08-26T07:55:48.585Z,6.53
2022-08-26T07:58:18.908Z,6.60
2022-08-26T08:00:48.563Z,6.20
2022-08-26T08:03:17.758Z,6.57
2022-08-26T08:05:47.386Z,5.40
2022-08-26T08:08:27.415Z,5.90
2022-08-26T08:11:00.153Z,5.80
2022-08-26T08:13:35.328Z,4.35
2022-08-26T08:16:05.077Z,4.20
2022-08-26T08:18:37.202Z,4.57
2022-08-26T08:21:20.953Z,4.13
2022-08-26T08:23:51.971Z,4.75
2022-08-26T08:26:23.335Z,4.13
2022-08-26T08:28:53.402Z,3.83
2022-08-26T08:31:52.127Z,4.05
2022-08-26T08:34:12.389Z,4.15
2022-08-26T08:36:41.786Z,4.25
2022-08-26T08:39:11.716Z,4.03
2022-08-26T08:41:50.213Z,4.30
2022-08-26T08:46:55.291Z,3.42
2022-08-26T08:49:26.047Z,2.65
2022-08-26T08:51:58.782Z,3.00
2022-08-26T08:54:29.254Z,3.50
2022-08-26T08:57:03.477Z,2.47
2022-08-26T08:59:34.340Z,3.05
2022-08-26T09:02:07.042Z,2.92
2022-08-26T09:04:53.136Z,3.28
2022-08-26T09:07:24.146Z,4.00
2022-08-26T09:09:57.248Z,3.13
2022-08-26T09:12:30.398Z,3.35
2022-08-26T09:15:02.927Z,3.38
2022-08-26T09:17:41.724Z,4.10
2022-08-26T09:20:16.439Z,3.40
2022-08-26T09:22:46.293Z,3.53
2022-08-26T09:25:16.267Z,3.13
2022-08-26T09:27:50.413Z,2.38
2022-08-26T09:30:29.463Z,2.03
2022-08-26T09:32:59.918Z,1.70
2022-08-26T09:35:30.890Z,2.47
2022-08-26T09:38:00.440Z,1.98
2022-08-26T09:40:34.936Z,2.00
2022-08-26T09:43:10.028Z,2.05
2022-08-26T09:45:40.161Z,1.80
2022-08-26T09:48:10.262Z,1.55
2022-08-26T09:50:53.981Z,2.17
2022-08-26T09:53:28.696Z,2.00
2022-08-26T09:56:17.352Z,1.70
2022-08-26T09:58:48.682Z,2.40
2022-08-26T10:01:19.465Z,1.70
2022-08-26T10:03:49.073Z,1.83
2022-08-26T10:06:26.805Z,1.77
2022-08-26T10:08:59.363Z,1.63
2022-08-26T10:11:33.120Z,1.27
2022-08-26T10:14:06.284Z,1.80
2022-08-26T10:16:37.183Z,1.65
2022-08-26T10:19:08.264Z,1.63
2022-08-26T10:21:40.035Z,2.00
2022-08-26T10:24:11.391Z,2.08
2022-08-26T10:26:43.645Z,1.90
2022-08-26T10:29:16.809Z,1.52
2022-08-26T10:31:51.611Z,2.20
2022-08-26T10:34:21.359Z,2.42
2022-08-26T10:37:15.726Z,2.57
2022-08-26T10:39:56.929Z,2.30
2022-08-26T10:45:04.409Z,1.83
2022-08-26T10:47:37.613Z,2.15
2022-08-26T10:50:07.354Z,2.50
2022-08-26T10:52:41.217Z,2.27
2022-08-26T10:55:15.352Z,2.13
2022-08-26T10:57:48.376Z,2.33
2022-08-26T11:00:35.361Z,2.30
2022-08-26T11:03:16.155Z,2.08
2022-08-26T11:06:06.637Z,1.90
2022-08-26T11:08:35.918Z,2.42
2022-08-26T11:11:05.015Z,1.80
2022-08-26T11:14:01.221Z,1.73
2022-08-26T11:16:43.273Z,1.70
2022-08-26T11:21:50.770Z,2.65
2022-08-26T11:24:38.420Z,1.67
2022-08-26T11:27:09.351Z,1.60
2022-08-26T11:29:59.424Z,1.45
2022-08-26T11:32:48.669Z,1.58
2022-08-26T11:35:32.688Z,1.85
2022-08-26T11:38:04.315Z,1.98
2022-08-26T11:40:37.233Z,1.63
2022-08-26T11:43:08.957Z,1.80
2022-08-26T11:45:40.716Z,2.10
2022-08-26T11:48:19.898Z,2.47
2022-08-26T11:50:54.851Z,1.30
2022-08-26T11:53:25.647Z,1.40
2022-08-26T11:55:56.905Z,1.35
2022-08-26T11:58:28.545Z,1.52
2022-08-26T12:00:59.020Z,1.23
2022-08-26T12:03:35.656Z,1.55
2022-08-26T12:06:05.342Z,1.25
2022-08-26T12:08:35.108Z,1.23
2022-08-26T12:11:05.363Z,1.17
2022-08-26T12:13:35.820Z,1.53
2022-08-26T12:16:07.829Z,1.97
2022-08-26T12:18:39.503Z,1.33
2022-08-26T12:21:13.621Z,1.52
2022-08-26T12:23:45.369Z,1.73
2022-08-26T12:26:22.553Z,1.77
2022-08-26T12:28:54.684Z,1.75
2022-08-26T12:31:27.500Z,1.60
2022-08-26T12:33:59.789Z,1.88
2022-08-26T12:36:31.578Z,1.70
2022-08-26T12:41:39.677Z,1.10
2022-08-26T12:44:08.892Z,1.48
2022-08-26T12:46:38.280Z,1.35
2022-08-26T12:49:11.060Z,1.63
2022-08-26T12:51:42.256Z,1.80
2022-08-26T12:54:16.074Z,1.48
2022-08-26T12:56:45.365Z,1.73
2022-08-26T12:59:23.279Z,1.80
2022-08-26T13:01:53.045Z,1.48
2022-08-26T13:04:37.107Z,1.70
2022-08-26T13:07:16.602Z,1.55
2022-08-26T13:09:45.564Z,1.85
2022-08-26T13:12:24.505Z,1.77
2022-08-26T13:14:53.589Z,1.48
2022-08-26T13:17:22.905Z,1.40
2022-08-26T13:19:54.046Z,1.30
2022-08-26T13:22:25.268Z,1.03
2022-08-26T13:24:55.333Z,1.85
2022-08-26T13:27:27.756Z,1.45
2022-08-26T13:29:59.187Z,1.10
2022-08-26T13:32:28.444Z,1.75
2022-08-26T13:34:59.714Z,1.30
2022-08-26T13:37:34.569Z,1.65
2022-08-26T13:40:09.172Z,1.20
2022-08-26T13:42:38.515Z,1.42
2022-08-26T13:45:19.738Z,1.40
2022-08-26T13:47:49.169Z,1.40
2022-08-26T13:50:22.998Z,1.83
2022-08-26T13:53:48.596Z,1.35
2022-08-26T13:56:18.958Z,1.55
2022-08-26T13:58:48.227Z,1.40
2022-08-26T14:01:19.387Z,1.60
2022-08-26T14:03:48.733Z,1.45
2022-08-26T14:06:19.357Z,1.40
2022-08-26T14:08:48.396Z,1.52
2022-08-26T14:11:17.757Z,1.48
2022-08-26T14:13:46.839Z,1.92
2022-08-26T14:16:19.681Z,1.58
2022-08-26T14:18:52.454Z,1.42
2022-08-26T14:21:23.262Z,1.48
2022-08-26T14:23:52.752Z,1.40
2022-08-26T14:26:29.303Z,1.25
2022-08-26T14:28:59.732Z,1.60
2022-08-26T14:31:29.751Z,1.50
2022-08-26T14:33:59.431Z,1.33
2022-08-26T14:36:32.281Z,1.55
2022-08-26T14:39:03.885Z,1.08
2022-08-26T14:41:33.937Z,1.13
2022-08-26T14:44:04.719Z,1.25
2022-08-26T14:46:36.139Z,1.33
2022-08-26T14:49:08.519Z,1.42
2022-08-26T14:51:41.227Z,1.20
2022-08-26T14:54:13.441Z,1.35
2022-08-26T14:56:48.623Z,1.15
2022-08-26T14:59:18.735Z,1.40
2022-08-26T15:01:47.823Z,1.95
2022-08-26T15:04:17.338Z,1.30
2022-08-26T15:06:48.002Z,2.10
2022-08-26T15:09:17.238Z,1.85
2022-08-26T15:11:46.396Z,1.60
2022-08-26T15:14:19.921Z,1.45
2022-08-26T15:16:49.524Z,1.60
2022-08-26T15:19:19.151Z,1.25
2022-08-26T15:21:49.532Z,1.45
2022-08-26T15:24:20.201Z,1.33
2022-08-26T15:26:49.897Z,1.92
2022-08-26T15:29:19.116Z,1.27
2022-08-26T15:31:48.759Z,1.05
2022-08-26T15:34:18.327Z,1.08
2022-08-26T15:36:49.270Z,1.40
2022-08-26T15:39:18.809Z,1.45
2022-08-26T15:41:48.148Z,1.30
2022-08-26T15:44:19.771Z,1.70
2022-08-26T15:46:49.581Z,1.10
2022-08-26T15:49:19.096Z,1.00
2022-08-26T15:51:50.477Z,1.38
2022-08-26T15:54:20.622Z,1.00
2022-08-26T15:56:52.353Z,1.33
2022-08-26T15:59:22.741Z,1.02
2022-08-26T16:01:51.819Z,1.20
2022-08-26T16:04:21.641Z,1.02
2022-08-26T16:06:52.545Z,1.80
2022-08-26T16:09:24.308Z,1.20
2022-08-26T16:11:53.750Z,1.00
2022-08-26T16:14:23.092Z,1.42
2022-08-26T16:16:52.553Z,1.25
2022-08-26T16:19:22.152Z,1.00
2022-08-26T16:21:52.738Z,0.95
2022-08-26T16:24:25.957Z,1.73
2022-08-26T16:26:58.122Z,1.48
2022-08-26T16:29:27.538Z,1.50
2022-08-26T16:31:56.612Z,1.10
2022-08-26T16:34:26.277Z,1.00
2022-08-26T16:36:56.819Z,1.27
2022-08-26T16:39:26.073Z,1.95
2022-08-26T16:41:55.190Z,1.00
2022-08-26T16:44:24.659Z,1.10
2022-08-26T16:47:03.565Z,1.40
2022-08-26T16:49:33.291Z,2.15
2022-08-26T16:52:04.475Z,1.65
2022-08-26T16:54:33.729Z,1.00
2022-08-26T16:57:03.142Z,1.50
2022-08-26T16:59:34.382Z,1.17
2022-08-26T17:02:04.259Z,1.52
2022-08-26T17:04:33.285Z,1.10
2022-08-26T17:07:03.690Z,1.20
2022-08-26T17:09:32.828Z,1.20
2022-08-26T17:12:02.130Z,1.40
2022-08-26T17:14:31.508Z,1.20
2022-08-26T17:17:00.570Z,1.27
2022-08-26T17:19:29.607Z,1.13
2022-08-26T17:22:07.454Z,1.35
2022-08-26T17:24:37.372Z,5.20
2022-08-26T17:27:06.864Z,1.60
2022-08-26T17:29:36.515Z,1.58
2022-08-26T17:32:05.922Z,1.10
2022-08-26T17:34:34.980Z,1.10
2022-08-26T17:37:04.530Z,1.20
2022-08-26T17:39:35.042Z,1.40
2022-08-26T17:42:04.332Z,1.05
2022-08-26T17:44:33.602Z,1.08
2022-08-26T17:47:02.758Z,1.35
2022-08-26T17:49:32.084Z,1.15
2022-08-26T17:52:03.513Z,1.25
2022-08-26T17:54:32.785Z,2.00
2022-08-26T17:57:03.853Z,1.67
2022-08-26T17:59:40.980Z,3.83
2022-08-26T18:02:10.133Z,3.92
2022-08-26T18:04:39.186Z,6.43
2022-08-26T18:07:08.641Z,11.75
2022-08-26T18:09:38.119Z,10.68
2022-08-26T18:12:09.291Z,12.93
2022-08-26T18:14:38.404Z,7.47
2022-08-26T18:17:07.971Z,3.67
2022-08-26T18:19:37.960Z,2.42
2022-08-26T18:22:07.524Z,2.05
2022-08-26T18:24:36.900Z,2.10
2022-08-26T18:27:06.287Z,3.60
2022-08-26T18:29:37.057Z,3.00
2022-08-26T18:32:14.603Z,2.85
2022-08-26T18:34:44.108Z,1.60
2022-08-26T18:37:14.736Z,1.60
2022-08-26T18:39:44.099Z,1.88
2022-08-26T18:42:13.232Z,1.73
2022-08-26T18:44:44.007Z,2.05
2022-08-26T18:47:13.264Z,1.60
2022-08-26T18:49:42.546Z,1.20
2022-08-26T18:52:12.391Z,2.30
2022-08-26T18:54:41.519Z,3.88
2022-08-26T18:57:11.542Z,4.28
2022-08-26T18:59:40.964Z,4.90
2022-08-26T19:02:14.126Z,4.20
2022-08-26T19:04:43.631Z,2.85
2022-08-26T19:07:13.455Z,3.25
2022-08-26T19:09:42.833Z,2.10
2022-08-26T19:12:12.648Z,1.98
2022-08-26T19:14:42.402Z,2.58
2022-08-26T19:17:13.454Z,2.60
2022-08-26T19:19:43.649Z,2.15
2022-08-26T19:22:14.760Z,1.70
2022-08-26T19:24:44.183Z,1.58
2022-08-26T19:27:14.999Z,2.63
2022-08-26T19:29:45.126Z,2.13
2022-08-26T19:32:17.779Z,2.80
2022-08-26T19:34:47.432Z,3.67
2022-08-26T19:37:16.944Z,5.30
2022-08-26T19:39:46.287Z,4.13
2022-08-26T19:42:16.591Z,4.47
2022-08-26T19:45:03.753Z,4.93
2022-08-26T19:47:36.471Z,4.20
2022-08-26T19:50:07.138Z,3.97
2022-08-26T19:52:36.551Z,2.03
2022-08-26T19:55:07.951Z,2.88
2022-08-26T19:57:37.914Z,3.30
2022-08-26T20:00:09.028Z,2.60
2022-08-26T20:02:39.952Z,2.13
2022-08-26T20:05:10.625Z,2.17
2022-08-26T20:07:39.952Z,2.40
2022-08-26T20:10:11.129Z,2.67
2022-08-26T20:12:41.607Z,3.65
2022-08-26T20:15:11.695Z,2.97
2022-08-26T20:17:42.614Z,3.15
2022-08-26T20:20:33.270Z,7.53
2022-08-26T20:23:05.581Z,8.18
2022-08-26T20:25:35.419Z,6.95
2022-08-26T20:28:05.255Z,7.20
2022-08-26T20:30:34.460Z,5.43
2022-08-26T20:33:04.878Z,4.47
2022-08-26T20:35:34.382Z,4.22
2022-08-26T20:38:03.713Z,2.65
2022-08-26T20:40:33.557Z,2.97
2022-08-26T20:43:03.944Z,3.08
2022-08-26T20:45:33.394Z,3.10
2022-08-26T20:48:03.225Z,3.05
2022-08-26T20:50:34.234Z,3.20
2022-08-26T20:53:03.796Z,2.90
2022-08-26T20:55:33.811Z,2.70
2022-08-26T20:58:03.260Z,2.78
2022-08-26T21:00:33.162Z,2.90
2022-08-26T21:03:02.509Z,3.15
2022-08-26T21:05:31.915Z,2.85
2022-08-26T21:08:02.886Z,3.17
2022-08-26T21:10:32.567Z,2.70
2022-08-26T21:13:02.382Z,3.20
2022-08-26T21:15:31.923Z,2.90
2022-08-26T21:18:01.285Z,2.75
2022-08-26T21:20:30.635Z,2.38
2022-08-26T21:22:59.901Z,2.80
2022-08-26T21:25:30.465Z,2.85
2022-08-26T21:27:59.637Z,2.20
2022-08-26T21:30:28.776Z,2.72
2022-08-26T21:32:57.848Z,3.33
2022-08-26T21:35:27.092Z,2.50
2022-08-26T21:37:56.293Z,3.38
2022-08-26T21:40:25.901Z,3.40
2022-08-26T21:42:56.487Z,3.22
2022-08-26T21:45:25.781Z,3.80
2022-08-26T21:47:54.958Z,2.90
2022-08-26T21:50:24.356Z,2.55
2022-08-26T21:52:53.899Z,3.13
2022-08-26T21:55:23.216Z,3.05
2022-08-26T21:57:53.081Z,2.63
2022-08-26T22:00:24.417Z,2.92
2022-08-26T22:02:53.689Z,3.28
2022-08-26T22:05:22.911Z,2.70
2022-08-26T22:07:52.499Z,2.75
2022-08-26T22:10:23.258Z,2.83
2022-08-26T22:12:52.391Z,2.67
2022-08-26T22:15:23.347Z,2.80
2022-08-26T22:17:54.033Z,2.75
2022-08-26T22:20:24.174Z,2.88
2022-08-26T22:22:53.452Z,3.47
2022-08-26T22:25:23.001Z,3.13
2022-08-26T22:27:52.507Z,2.70
2022-08-26T22:30:21.879Z,2.70
2022-08-26T22:32:51.169Z,2.50
2022-08-26T22:35:29.101Z,2.80
2022-08-26T22:37:58.682Z,2.92
2022-08-26T22:40:28.414Z,2.92
2022-08-26T22:43:00.314Z,3.35
2022-08-26T22:45:31.448Z,3.25
2022-08-26T22:48:01.882Z,2.60
2022-08-26T22:50:32.393Z,2.78
2022-08-26T22:53:01.953Z,2.67
2022-08-26T22:55:31.071Z,2.83
2022-08-26T22:58:00.300Z,3.13
2022-08-26T23:00:32.291Z,2.85
2022-08-26T23:03:02.294Z,3.40
2022-08-26T23:05:33.214Z,3.20
2022-08-26T23:08:03.150Z,3.22
2022-08-26T23:10:33.058Z,3.22
2022-08-26T23:13:05.173Z,2.92
2022-08-26T23:18:03.686Z,2.80
2022-08-26T23:20:37.271Z,3.00
2022-08-26T23:23:06.797Z,2.97
2022-08-26T23:25:36.300Z,3.28
2022-08-26T23:28:07.260Z,3.25
2022-08-26T23:30:36.323Z,3.20
2022-08-26T23:33:05.627Z,3.20
2022-08-26T23:35:35.265Z,2.53
2022-08-26T23:38:04.355Z,3.38
2022-08-26T23:40:35.113Z,2.85
2022-08-26T23:43:06.887Z,3.45
2022-08-26T23:45:36.634Z,3.13
2022-08-26T23:48:06.627Z,2.97
2022-08-26T23:50:56.707Z,3.20
2022-08-26T23:53:25.985Z,3.53
2022-08-26T23:55:55.434Z,3.47
2022-08-26T23:58:24.616Z,3.33
